Time;durP1;ratioP1;P1;durP2;ratioP2;P2;SDS_P1;SDS_P2;PMS_P1;PMS_P2;Temp;Humidity;BMP_temperature;BMP_pressure;BME280_temperature;BME280_humidity;BME280_pressure;Samples;Min_cycle;Max_cycle;Signal;HPM_P1;HPM_P2
2022/11/27 00:00:57;;;;;;;31.70;15.83;;;7.70;99.90;;;;;;5101531;28;20486;-87
2022/11/27 00:03:24;;;;;;;29.60;15.87;;;7.70;99.90;;;;;;5100861;28;20447;-88
2022/11/27 00:05:54;;;;;;;33.20;14.43;;;7.70;99.90;;;;;;5101593;28;20475;-87
2022/11/27 00:08:21;;;;;;;23.83;14.00;;;;;;;;;;5102235;28;20233;-87
2022/11/27 00:10:48;;;;;;;29.23;14.67;;;8.00;99.90;;;;;;5105942;28;20475;-88
2022/11/27 00:13:15;;;;;;;23.20;14.90;;;7.70;99.90;;;;;;5106328;28;20511;-87
2022/11/27 00:15:42;;;;;;;29.30;16.45;;;8.10;99.90;;;;;;5105694;28;20309;-88
2022/11/27 00:18:09;;;;;;;27.37;14.80;;;8.10;99.90;;;;;;5113362;28;20239;-89
2022/11/27 00:20:36;;;;;;;18.83;12.45;;;;;;;;;;5104821;28;20550;-88
2022/11/27 00:23:05;;;;;;;27.00;14.20;;;;;;;;;;5106093;28;20206;-87
2022/11/27 00:25:32;;;;;;;25.00;14.40;;;8.00;99.90;;;;;;5100123;28;20501;-87
2022/11/27 00:27:59;;;;;;;29.33;12.95;;;;;;;;;;5099846;28;20844;-87
2022/11/27 00:30:26;;;;;;;23.90;11.90;;;7.70;99.90;;;;;;5099486;28;20208;-87
2022/11/27 00:32:53;;;;;;;24.63;13.20;;;7.70;99.90;;;;;;5100297;28;20478;-87
2022/11/27 00:35:19;;;;;;;28.50;13.50;;;7.70;99.90;;;;;;5103258;28;20475;-87
2022/11/27 00:37:46;;;;;;;27.63;14.10;;;7.70;99.90;;;;;;5101293;28;20448;-87
2022/11/27 00:40:15;;;;;;;25.07;15.13;;;7.70;99.90;;;;;;5113395;28;20478;-87
2022/11/27 00:42:42;;;;;;;31.40;14.63;;;;;;;;;;5121496;28;20448;-86
2022/11/27 00:45:10;;;;;;;34.03;17.27;;;7.50;99.90;;;;;;5121257;28;20465;-86
2022/11/27 00:47:37;;;;;;;29.40;14.60;;;7.70;99.90;;;;;;5119159;28;20190;-87
2022/11/27 00:50:04;;;;;;;29.80;14.88;;;8.10;99.90;;;;;;5119099;28;20448;-87
2022/11/27 00:52:31;;;;;;;17.63;12.07;;;7.50;99.90;;;;;;5118324;28;20233;-87
2022/11/27 00:54:58;;;;;;;30.37;13.97;;;7.50;99.90;;;;;;5120096;28;20459;-86
2022/11/27 00:57:26;;;;;;;25.60;14.47;;;7.50;99.90;;;;;;5120124;28;20487;-87
2022/11/27 00:59:53;;;;;;;33.50;14.00;;;7.50;99.90;;;;;;5118324;28;20510;-87
2022/11/27 01:02:20;;;;;;;26.60;15.63;;;7.50;99.90;;;;;;5119120;28;20469;-87
2022/11/27 01:04:57;;;;;;;27.03;14.17;;;;;;;;;;5131486;22;20488;-86
2022/11/27 01:07:24;;;;;;;24.25;13.82;;;;;;;;;;5090121;28;20411;-83
2022/11/27 01:09:51;;;;;;;29.17;15.07;;;;;;;;;;5090565;28;20187;-84
2022/11/27 01:12:19;;;;;;;22.03;12.73;;;;;;;;;;5092411;28;20480;-85
2022/11/27 01:14:47;;;;;;;23.50;13.90;;;;;;;;;;5087490;28;20462;-83
2022/11/27 01:17:14;;;;;;;29.70;14.30;;;;;;;;;;5072107;28;20470;-84
2022/11/27 01:19:42;;;;;;;23.43;13.60;;;;;;;;;;5088845;28;20530;-85
2022/11/27 01:22:09;;;;;;;34.00;15.13;;;;;;;;;;5087292;28;20419;-85
2022/11/27 01:24:36;;;;;;;28.67;13.30;;;;;;;;;;5087952;28;20472;-85
2022/11/27 01:27:03;;;;;;;25.10;14.30;;;7.50;99.90;;;;;;5082830;28;20517;-84
2022/11/27 01:29:30;;;;;;;17.00;11.50;;;7.50;99.90;;;;;;5081422;28;20445;-85
2022/11/27 01:31:58;;;;;;;23.30;12.77;;;7.50;99.90;;;;;;5082151;28;20516;-85
2022/11/27 01:34:25;;;;;;;24.27;13.45;;;7.50;99.90;;;;;;5081852;28;20828;-85
2022/11/27 01:36:51;;;;;;;25.40;12.82;;;7.50;99.90;;;;;;5081736;28;20274;-84
2022/11/27 01:39:22;;;;;;;28.37;13.63;;;7.50;99.90;;;;;;5082230;28;20206;-84
2022/11/27 01:41:50;;;;;;;22.98;14.13;;;7.50;99.90;;;;;;5081314;28;20824;-84
2022/11/27 01:44:49;;;;;;;32.00;14.18;;;7.70;99.90;;;;;;5081265;28;20291;-85
2022/11/27 01:47:32;;;;;;;25.60;14.27;;;7.70;99.90;;;;;;5079505;28;20198;-85
2022/11/27 01:50:11;;;;;;;24.03;11.70;;;7.40;99.90;;;;;;5080825;28;20190;-84
2022/11/27 01:52:42;;;;;;;23.95;13.13;;;7.40;99.90;;;;;;5080402;28;20408;-85
2022/11/27 01:55:17;;;;;;;24.75;14.35;;;7.40;99.90;;;;;;5081315;28;20233;-85
2022/11/27 01:57:47;;;;;;;25.02;14.15;;;7.40;99.90;;;;;;5082739;28;20198;-85
2022/11/27 02:00:16;;;;;;;28.60;14.10;;;7.40;99.90;;;;;;5081056;28;20285;-86
2022/11/27 02:02:44;;;;;;;22.37;12.73;;;7.50;99.90;;;;;;5081112;28;20270;-85
2022/11/27 02:05:15;;;;;;;28.33;15.13;;;7.40;99.90;;;;;;5080905;28;20473;-83
2022/11/27 02:07:41;;;;;;;21.17;12.55;;;7.40;99.90;;;;;;5081058;28;20186;-86
2022/11/27 02:10:09;;;;;;;22.23;12.48;;;7.30;99.90;;;;;;5080115;28;20238;-86
2022/11/27 02:12:45;;;;;;;28.10;15.02;;;7.30;99.90;;;;;;5080908;28;20199;-86
2022/11/27 02:15:19;;;;;;;24.13;15.93;;;7.30;99.90;;;;;;5080202;28;20252;-85
2022/11/27 02:17:53;;;;;;;36.33;17.50;;;7.40;99.90;;;;;;5078825;28;20186;-85
2022/11/27 02:20:30;;;;;;;30.67;17.17;;;7.30;99.90;;;;;;5079741;28;20206;-85
2022/11/27 02:23:17;;;;;;;32.45;17.35;;;7.40;99.90;;;;;;5081657;28;20624;-85
2022/11/27 02:26:06;;;;;;;28.83;15.60;;;7.30;99.90;;;;;;5083349;28;20240;-85
2022/11/27 02:28:44;;;;;;;31.10;14.20;;;7.20;99.90;;;;;;5079971;28;20278;-86
2022/11/27 02:31:18;;;;;;;31.95;15.40;;;7.20;99.90;;;;;;5080228;28;20428;-85
2022/11/27 02:33:53;;;;;;;22.25;14.32;;;7.10;99.90;;;;;;5079977;28;20604;-85
2022/11/27 02:36:23;;;;;;;26.75;14.68;;;7.10;99.90;;;;;;5083288;28;20256;-85
2022/11/27 02:38:56;;;;;;;32.85;15.25;;;7.10;99.90;;;;;;5094819;28;20213;-84
2022/11/27 02:41:26;;;;;;;33.90;14.35;;;7.30;99.90;;;;;;5097160;28;20254;-84
2022/11/27 02:43:55;;;;;;;27.00;14.10;;;7.20;99.90;;;;;;5080067;28;20270;-85
2022/11/27 02:46:25;;;;;;;26.25;16.17;;;7.20;99.90;;;;;;5078851;28;20254;-83
2022/11/27 02:48:56;;;;;;;27.92;15.05;;;7.10;99.90;;;;;;5078306;28;20191;-84
2022/11/27 02:51:28;;;;;;;24.80;16.40;;;7.20;99.90;;;;;;5080287;28;20616;-84
2022/11/27 02:53:58;;;;;;;28.77;15.55;;;7.20;99.90;;;;;;5078897;28;20497;-83
2022/11/27 02:56:28;;;;;;;27.07;14.90;;;7.20;99.90;;;;;;5078663;28;20226;-85
2022/11/27 02:58:59;;;;;;;30.00;14.90;;;7.20;99.90;;;;;;5078634;28;20475;-84
2022/11/27 03:01:31;;;;;;;23.75;14.90;;;7.20;99.90;;;;;;5079483;28;20297;-85
2022/11/27 03:04:00;;;;;;;32.77;14.60;;;7.10;99.90;;;;;;5082895;28;20218;-85
2022/11/27 03:06:30;;;;;;;21.27;14.30;;;7.00;99.90;;;;;;5088212;28;20527;-85
2022/11/27 03:09:00;;;;;;;28.08;13.63;;;6.70;99.90;;;;;;5079940;28;20415;-84
2022/11/27 03:11:29;;;;;;;22.30;13.68;;;7.00;99.90;;;;;;5080659;28;20205;-85
2022/11/27 03:14:01;;;;;;;28.60;15.30;;;7.00;99.90;;;;;;5081067;28;20207;-85
2022/11/27 03:16:37;;;;;;;31.02;17.35;;;6.90;99.90;;;;;;5080394;28;20872;-86
2022/11/27 03:19:15;;;;;;;28.02;17.63;;;7.20;99.90;;;;;;5078898;28;20571;-86
2022/11/27 03:21:45;;;;;;;28.42;15.75;;;6.90;99.90;;;;;;5078574;28;20298;-85
2022/11/27 03:24:12;;;;;;;31.85;16.40;;;6.60;99.90;;;;;;5078412;28;20202;-85
2022/11/27 03:26:40;;;;;;;24.83;16.38;;;6.80;99.90;;;;;;5078439;28;20198;-85
2022/11/27 03:29:10;;;;;;;32.33;16.88;;;6.90;99.90;;;;;;5078511;28;20205;-85
2022/11/27 03:31:38;;;;;;;26.98;15.18;;;6.70;99.90;;;;;;5083964;28;20552;-85
2022/11/27 03:34:06;;;;;;;23.30;15.60;;;6.60;99.90;;;;;;5083463;28;20198;-85
2022/11/27 03:36:33;;;;;;;23.58;15.40;;;6.70;99.90;;;;;;5086817;28;20643;-85
2022/11/27 03:39:00;;;;;;;31.90;17.10;;;6.90;99.90;;;;;;5094920;28;20193;-84
2022/11/27 03:41:40;;;;;;;23.30;15.70;;;6.70;99.90;;;;;;5100083;28;20252;-85
2022/11/27 03:44:13;;;;;;;29.40;16.00;;;6.50;99.90;;;;;;5096729;28;20191;-84
2022/11/27 03:46:51;;;;;;;29.27;15.00;;;6.60;99.90;;;;;;5090797;28;20198;-85
2022/11/27 03:49:25;;;;;;;26.83;16.35;;;6.50;99.90;;;;;;5088760;28;20203;-85
2022/11/27 03:51:58;;;;;;;26.40;15.55;;;6.60;99.90;;;;;;5088551;28;20217;-84
2022/11/27 03:54:36;;;;;;;30.25;15.13;;;6.50;99.90;;;;;;5085592;28;20226;-84
2022/11/27 03:57:10;;;;;;;23.98;14.77;;;6.40;99.90;;;;;;5085014;28;20222;-85
2022/11/27 03:59:40;;;;;;;25.10;14.35;;;6.50;99.90;;;;;;5084786;28;20576;-84
2022/11/27 04:02:13;;;;;;;27.33;14.10;;;6.20;99.90;;;;;;5081957;28;20221;-84
2022/11/27 04:04:41;;;;;;;21.88;13.85;;;6.50;99.90;;;;;;5088198;28;20317;-82
2022/11/27 04:07:09;;;;;;;23.58;15.18;;;6.50;99.90;;;;;;5089926;28;20217;-84
2022/11/27 04:09:36;;;;;;;25.80;13.93;;;6.50;99.90;;;;;;5085484;28;20612;-83
2022/11/27 04:12:03;;;;;;;25.02;15.63;;;6.40;99.90;;;;;;5079733;28;20207;-84
2022/11/27 04:14:30;;;;;;;22.77;14.20;;;6.30;99.90;;;;;;5083906;28;20227;-84
2022/11/27 04:16:57;;;;;;;27.73;14.98;;;6.30;99.90;;;;;;5090092;28;20198;-83
2022/11/27 04:19:26;;;;;;;28.50;13.82;;;6.50;99.90;;;;;;5095503;28;20234;-83
2022/11/27 04:21:52;;;;;;;22.98;13.55;;;6.20;99.90;;;;;;5095642;28;20644;-84
2022/11/27 04:24:19;;;;;;;17.27;13.82;;;5.70;99.90;;;;;;5093749;28;20236;-85
2022/11/27 04:26:46;;;;;;;26.35;14.05;;;6.10;99.90;;;;;;5088699;28;20202;-84
2022/11/27 04:29:13;;;;;;;23.90;13.07;;;6.10;99.90;;;;;;5087377;28;20297;-85
2022/11/27 04:31:40;;;;;;;24.70;14.60;;;6.10;99.90;;;;;;5089018;28;20287;-87
2022/11/27 04:34:07;;;;;;;26.88;14.18;;;6.20;99.90;;;;;;5088069;28;20218;-84
2022/11/27 04:36:36;;;;;;;25.02;13.57;;;6.00;99.90;;;;;;5084353;28;20213;-84
2022/11/27 04:39:03;;;;;;;16.30;13.02;;;6.00;99.90;;;;;;5088881;28;20199;-84
2022/11/27 04:41:30;;;;;;;23.00;12.90;;;6.00;99.90;;;;;;5098430;28;20210;-84
2022/11/27 04:43:57;;;;;;;26.95;14.60;;;5.60;99.90;;;;;;5095416;28;20289;-83
2022/11/27 04:46:24;;;;;;;26.65;13.00;;;6.00;99.90;;;;;;5093833;28;20263;-84
2022/11/27 04:48:51;;;;;;;17.83;11.80;;;5.80;99.90;;;;;;5094454;28;20293;-83
2022/11/27 04:51:18;;;;;;;17.73;14.50;;;6.10;99.90;;;;;;5089760;28;20199;-85
2022/11/27 04:53:46;;;;;;;23.35;13.02;;;5.80;99.90;;;;;;5084620;28;20298;-85
2022/11/27 04:56:13;;;;;;;21.95;12.30;;;5.60;99.90;;;;;;5083905;28;20289;-86
2022/11/27 04:58:42;;;;;;;20.98;12.50;;;5.90;99.90;;;;;;5085850;28;20301;-85
2022/11/27 05:01:09;;;;;;;18.38;12.75;;;5.80;99.90;;;;;;5089654;28;20218;-85
2022/11/27 05:03:36;;;;;;;17.60;12.85;;;5.90;99.90;;;;;;5086393;28;20202;-85
2022/11/27 05:06:04;;;;;;;20.05;12.05;;;5.60;99.90;;;;;;5085299;28;20234;-85
2022/11/27 05:08:31;;;;;;;23.95;13.20;;;5.60;99.90;;;;;;5082387;28;20198;-84
2022/11/27 05:11:02;;;;;;;23.13;13.60;;;5.60;99.90;;;;;;5083098;28;20202;-84
2022/11/27 05:13:29;;;;;;;19.80;11.93;;;5.60;99.90;;;;;;5081093;28;20225;-84
2022/11/27 05:15:56;;;;;;;22.83;12.35;;;;;;;;;;5082242;28;20292;-85
2022/11/27 05:18:24;;;;;;;21.50;12.43;;;5.60;99.90;;;;;;5086873;28;20221;-84
2022/11/27 05:20:57;;;;;;;24.55;12.57;;;5.50;99.90;;;;;;5091228;28;20238;-83
2022/11/27 05:23:25;;;;;;;19.88;13.02;;;5.50;99.90;;;;;;5091935;28;20201;-84
2022/11/27 05:25:52;;;;;;;18.98;12.82;;;5.10;99.90;;;;;;5092269;28;20276;-86
2022/11/27 05:28:22;;;;;;;22.50;13.00;;;5.30;99.90;;;;;;5089992;28;20257;-86
2022/11/27 05:30:49;;;;;;;23.70;13.27;;;5.50;99.90;;;;;;5088380;28;20668;-85
2022/11/27 05:33:18;;;;;;;22.20;13.50;;;5.40;99.90;;;;;;5086141;28;20210;-86
2022/11/27 05:35:45;;;;;;;20.55;13.20;;;4.80;99.90;;;;;;5085767;28;20332;-83
2022/11/27 05:38:12;;;;;;;22.85;12.10;;;5.10;99.90;;;;;;5081728;28;20202;-86
2022/11/27 05:40:41;;;;;;;31.23;12.52;;;5.10;99.90;;;;;;5082329;28;20285;-86
2022/11/27 05:43:08;;;;;;;25.38;12.32;;;5.10;99.90;;;;;;5081711;28;20267;-85
2022/11/27 05:45:37;;;;;;;27.35;13.23;;;5.10;99.90;;;;;;5083749;28;20293;-86
2022/11/27 05:48:04;;;;;;;19.23;13.15;;;5.10;99.90;;;;;;5091243;28;20217;-85
2022/11/27 05:50:31;;;;;;;21.30;13.63;;;5.00;99.90;;;;;;5092026;28;20230;-85
2022/11/27 05:52:58;;;;;;;25.42;12.75;;;4.60;99.90;;;;;;5093528;28;20236;-84
2022/11/27 05:55:25;;;;;;;23.13;13.00;;;4.90;99.90;;;;;;5099437;28;20228;-83
2022/11/27 05:57:52;;;;;;;20.92;13.57;;;4.80;99.90;;;;;;5088412;28;20262;-84
2022/11/27 06:00:21;;;;;;;32.60;15.35;;;4.80;99.90;;;;;;5084731;28;20222;-84
2022/11/27 06:02:51;;;;;;;27.70;13.70;;;4.80;99.90;;;;;;5082784;28;20430;-84
2022/11/27 06:05:18;;;;;;;22.67;12.65;;;4.80;99.90;;;;;;5082672;28;20230;-84
2022/11/27 06:07:46;;;;;;;25.85;13.85;;;;;;;;;;5081349;28;20206;-85
2022/11/27 06:10:14;;;;;;;21.02;13.85;;;5.10;99.90;;;;;;5082928;28;20225;-85
2022/11/27 06:12:46;;;;;;;23.15;13.80;;;4.90;99.90;;;;;;5083865;28;20199;-85
2022/11/27 06:15:17;;;;;;;20.30;13.82;;;4.90;99.90;;;;;;5084109;28;20303;-85
2022/11/27 06:17:49;;;;;;;25.55;14.25;;;5.10;99.90;;;;;;5084192;28;20213;-85
2022/11/27 06:32:16;;;;;;;28.02;13.07;;;4.60;99.90;;;;;;4423822;22;20275;-83
2022/11/27 06:52:36;;;;;;;22.88;14.15;;;4.40;99.90;;;;;;4785859;29;20200;-84
2022/11/27 06:59:27;;;;;;;23.58;13.80;;;4.40;99.90;;;;;;4998197;28;20198;-84
2022/11/27 07:08:10;;;;;;;23.55;13.75;;;4.40;99.90;;;;;;5098317;22;20337;-86
2022/11/27 07:10:38;;;;;;;29.63;14.93;;;4.40;99.90;;;;;;5120561;28;20208;-87
2022/11/27 07:13:05;;;;;;;25.20;14.10;;;4.40;99.90;;;;;;5118005;28;20296;-87
2022/11/27 07:15:34;;;;;;;24.10;15.70;;;5.20;99.90;;;;;;5116569;28;20678;-86
2022/11/27 07:18:01;;;;;;;23.35;14.90;;;4.50;99.90;;;;;;5108030;28;20222;-86
2022/11/27 07:20:29;;;;;;;22.83;13.85;;;4.50;99.90;;;;;;5099400;28;20272;-87
2022/11/27 07:22:56;;;;;;;28.48;16.00;;;4.40;99.90;;;;;;5097374;28;20225;-87
2022/11/27 07:25:24;;;;;;;25.83;14.88;;;4.30;99.90;;;;;;5099323;28;20209;-86
2022/11/27 07:27:51;;;;;;;21.27;13.55;;;4.40;99.90;;;;;;5096828;28;20743;-87
2022/11/27 07:30:18;;;;;;;22.38;14.77;;;4.20;99.90;;;;;;5096999;28;20201;-87
2022/11/27 07:32:46;;;;;;;24.08;13.70;;;4.30;99.90;;;;;;5096053;28;20622;-87
2022/11/27 07:35:13;;;;;;;25.92;14.25;;;4.30;99.90;;;;;;5097310;28;20629;-87
2022/11/27 07:37:40;;;;;;;27.15;13.90;;;4.30;99.90;;;;;;5096543;28;20238;-87
2022/11/27 07:40:08;;;;;;;20.23;13.55;;;4.30;99.90;;;;;;5099499;28;20289;-88
2022/11/27 07:42:42;;;;;;;23.25;15.27;;;4.30;99.90;;;;;;5116549;28;20213;-86
2022/11/27 07:45:10;;;;;;;23.73;14.82;;;4.40;99.90;;;;;;5103551;28;20240;-87
2022/11/27 07:47:37;;;;;;;22.40;12.85;;;4.40;99.90;;;;;;5101139;28;20301;-87
2022/11/27 07:50:08;;;;;;;19.13;14.13;;;4.30;99.90;;;;;;5097066;28;20209;-87
2022/11/27 07:52:35;;;;;;;19.75;12.90;;;4.70;99.90;;;;;;5096709;28;20209;-87
2022/11/27 07:55:03;;;;;;;17.65;13.00;;;4.10;99.90;;;;;;5097133;28;20198;-86
2022/11/27 07:57:32;;;;;;;21.67;12.82;;;4.40;99.90;;;;;;5096428;28;20218;-87
2022/11/27 08:00:02;;;;;;;28.77;15.00;;;5.50;99.90;;;;;;5096624;28;20639;-87
2022/11/27 08:02:30;;;;;;;24.38;14.10;;;4.20;99.90;;;;;;5099020;28;20225;-86
2022/11/27 08:05:00;;;;;;;18.85;13.43;;;4.80;99.90;;;;;;5096501;28;20209;-86
2022/11/27 08:23:39;;;;;;;29.13;15.13;;;;;;;;;;5078750;26;20700;-88
2022/11/27 08:29:29;;;;;;;26.77;15.18;;;;;;;;;;5058411;28;20388;-88
2022/11/27 08:51:38;;;;;;;26.65;15.02;;;4.80;99.90;;;;;;4996866;28;20266;-83
2022/11/27 09:10:09;;;;;;;17.52;13.10;;;5.10;99.90;;;;;;5065608;22;20233;-88
2022/11/27 09:12:36;;;;;;;16.15;12.20;;;5.40;99.90;;;;;;5118786;28;20193;-88
2022/11/27 09:15:03;;;;;;;21.98;14.68;;;5.10;99.90;;;;;;5119617;28;20296;-87
2022/11/27 09:17:31;;;;;;;20.42;14.60;;;;;;;;;;5118817;28;20204;-87
2022/11/27 09:19:58;;;;;;;19.52;13.55;;;5.10;99.90;;;;;;5103112;28;20226;-88
2022/11/27 09:22:24;;;;;;;19.33;13.68;;;5.10;99.90;;;;;;5097897;28;20312;-87
2022/11/27 09:24:51;;;;;;;18.70;12.95;;;5.30;99.90;;;;;;5099278;28;20198;-88
2022/11/27 09:27:19;;;;;;;18.75;13.23;;;5.20;99.90;;;;;;5099551;28;20743;-87
2022/11/27 09:29:46;;;;;;;20.15;13.48;;;5.10;99.90;;;;;;5108817;28;20636;-87
2022/11/27 09:32:13;;;;;;;23.38;13.68;;;5.00;99.90;;;;;;5107110;28;20198;-88
2022/11/27 09:34:40;;;;;;;28.13;13.70;;;5.50;99.90;;;;;;5112149;28;20205;-88
2022/11/27 09:37:08;;;;;;;20.83;12.50;;;5.10;99.90;;;;;;5109620;28;20231;-88
2022/11/27 09:39:35;;;;;;;20.95;14.57;;;4.90;99.90;;;;;;5102491;28;20229;-88
2022/11/27 09:42:05;;;;;;;18.00;12.77;;;5.20;99.90;;;;;;5105163;28;20214;-88
2022/11/27 09:44:41;;;;;;;21.02;13.90;;;5.20;99.90;;;;;;5106548;28;20262;-88
2022/11/27 09:47:16;;;;;;;23.20;13.25;;;5.20;99.90;;;;;;5099809;28;20281;-88
2022/11/27 09:49:48;;;;;;;20.95;14.48;;;5.20;99.90;;;;;;5099347;28;20278;-88
2022/11/27 09:52:22;;;;;;;25.40;16.65;;;5.40;99.90;;;;;;5099046;28;20249;-87
2022/11/27 09:54:55;;;;;;;24.50;17.50;;;5.40;99.90;;;;;;5105867;28;20190;-87
2022/11/27 09:57:28;;;;;;;24.52;16.35;;;5.40;99.90;;;;;;5112715;28;20186;-87
2022/11/27 10:00:01;;;;;;;22.30;14.70;;;5.50;99.90;;;;;;5109907;28;20233;-87
2022/11/27 10:02:31;;;;;;;16.98;12.57;;;5.50;99.90;;;;;;5110709;28;20271;-86
2022/11/27 10:04:59;;;;;;;22.05;12.43;;;5.50;99.90;;;;;;5109757;28;20197;-87
2022/11/27 10:07:38;;;;;;;19.83;13.30;;;5.30;99.90;;;;;;5110122;28;20229;-86
2022/11/27 10:10:20;;;;;;;18.20;11.93;;;5.50;99.90;;;;;;5112459;28;20229;-87
2022/11/27 10:12:57;;;;;;;21.45;13.82;;;5.70;99.90;;;;;;5111298;28;20272;-87
2022/11/27 10:15:37;;;;;;;22.73;11.70;;;5.50;99.90;;;;;;5105849;28;20249;-87
2022/11/27 10:18:11;;;;;;;22.30;12.88;;;5.80;99.90;;;;;;5099725;28;20240;-88
2022/11/27 10:20:45;;;;;;;21.77;12.25;;;5.70;99.90;;;;;;5111061;28;20170;-88
2022/11/27 10:23:20;;;;;;;22.10;12.82;;;5.90;99.90;;;;;;5118054;28;20210;-88
2022/11/27 10:25:50;;;;;;;17.45;13.35;;;5.70;99.90;;;;;;5111855;28;20209;-87
2022/11/27 10:28:27;;;;;;;19.70;13.65;;;5.70;99.90;;;;;;5118375;28;20170;-87
2022/11/27 10:31:00;;;;;;;24.05;13.02;;;6.00;99.90;;;;;;5116474;28;20210;-87
2022/11/27 10:33:33;;;;;;;18.30;12.73;;;6.20;99.90;;;;;;5115771;28;20198;-88
2022/11/27 10:36:01;;;;;;;15.88;11.20;;;6.10;99.90;;;;;;5110393;28;20214;-87
2022/11/27 10:38:33;;;;;;;18.40;11.45;;;6.10;99.90;;;;;;5108783;28;20245;-87
2022/11/27 10:41:07;;;;;;;14.05;10.65;;;6.00;99.90;;;;;;5110817;28;20262;-88
2022/11/27 10:43:35;;;;;;;16.38;11.00;;;5.90;99.90;;;;;;5110045;28;20221;-87
2022/11/27 10:46:09;;;;;;;12.23;10.27;;;6.20;99.90;;;;;;5110998;28;20206;-87
2022/11/27 10:48:36;;;;;;;16.42;12.48;;;6.50;99.90;;;;;;5103941;28;20251;-88
2022/11/27 10:51:03;;;;;;;18.20;11.98;;;6.20;99.90;;;;;;5103082;28;20206;-86
2022/11/27 10:53:32;;;;;;;19.23;11.23;;;6.10;99.90;;;;;;5100200;28;20661;-87
2022/11/27 10:56:14;;;;;;;21.48;13.23;;;6.10;99.90;;;;;;5107945;28;20200;-86
2022/11/27 10:58:45;;;;;;;18.75;11.05;;;6.30;99.90;;;;;;5103364;28;20226;-86
2022/11/27 11:01:16;;;;;;;18.13;12.13;;;6.10;99.90;;;;;;5114005;28;20209;-87
2022/11/27 11:03:43;;;;;;;20.35;13.30;;;6.20;99.90;;;;;;5115923;28;20254;-87
2022/11/27 11:06:22;;;;;;;19.83;11.60;;;6.30;99.90;;;;;;5112786;28;20197;-87
2022/11/27 11:09:00;;;;;;;17.88;12.02;;;6.30;99.90;;;;;;5114005;28;20217;-86
2022/11/27 11:11:28;;;;;;;17.65;12.63;;;6.30;99.90;;;;;;5116306;28;20237;-86
2022/11/27 11:13:54;;;;;;;19.85;11.85;;;6.70;99.90;;;;;;5116590;28;20205;-86
2022/11/27 11:16:26;;;;;;;15.07;12.32;;;6.40;99.90;;;;;;5116904;28;20196;-87
2022/11/27 11:18:54;;;;;;;17.42;11.23;;;6.30;99.90;;;;;;5116771;28;20221;-86
2022/11/27 11:21:27;;;;;;;16.38;11.75;;;6.30;99.90;;;;;;5106574;28;20284;-87
2022/11/27 11:24:02;;;;;;;18.83;12.15;;;5.20;55.20;;;;;;5104865;28;20213;-88
2022/11/27 11:26:38;;;;;;;19.00;13.02;;;6.30;99.90;;;;;;5103688;28;20202;-87
2022/11/27 11:29:26;;;;;;;18.65;11.55;;;6.60;99.90;;;;;;5100115;28;20245;-87
2022/11/27 11:31:56;;;;;;;16.42;10.20;;;6.10;99.90;;;;;;5097876;28;20514;-87
2022/11/27 11:34:27;;;;;;;16.15;9.88;;;6.30;99.70;;;;;;5098963;28;20239;-87
2022/11/27 11:36:58;;;;;;;16.67;10.95;;;6.50;99.90;;;;;;5102664;28;20193;-87
2022/11/27 11:39:29;;;;;;;16.20;10.93;;;6.70;99.90;;;;;;5101935;28;20218;-87
2022/11/27 11:41:56;;;;;;;21.42;11.65;;;6.30;99.90;;;;;;5103658;28;20193;-87
2022/11/27 11:44:29;;;;;;;15.70;10.70;;;6.60;83.70;;;;;;5100774;28;20253;-86
2022/11/27 11:46:57;;;;;;;17.17;11.27;;;6.60;76.30;;;;;;5098849;28;20222;-86
2022/11/27 11:49:26;;;;;;;15.40;10.55;;;6.60;89.60;;;;;;5097703;28;20225;-86
2022/11/27 11:52:08;;;;;;;18.08;10.15;;;7.00;99.90;;;;;;5100846;28;20289;-87
2022/11/27 11:54:57;;;;;;;20.48;11.90;;;6.70;88.70;;;;;;5102378;28;20255;-87
2022/11/27 11:57:44;;;;;;;19.13;10.48;;;6.80;80.70;;;;;;5102192;28;20240;-87
2022/11/27 12:00:15;;;;;;;15.45;9.60;;;6.80;7.90;;;;;;5100811;28;20222;-87
2022/11/27 12:03:02;;;;;;;12.98;10.40;;;6.80;31.00;;;;;;5102806;28;20279;-87
2022/11/27 12:08:50;;;;;;;18.70;11.90;;;6.80;94.60;;;;;;5103385;28;20214;-86
2022/11/27 12:25:17;;;;;;;14.40;11.15;;;6.90;17.30;;;;;;5070075;28;20274;-87
2022/11/27 12:45:58;;;;;;;13.98;11.18;;;6.90;58.90;;;;;;4894011;29;20230;-87
2022/11/27 12:52:15;;;;;;;27.55;11.95;;;7.10;27.80;;;;;;5030017;28;20223;-85
2022/11/27 12:55:11;;;;;;;14.50;10.15;;;6.80;28.40;;;;;;5118215;28;20267;-85
2022/11/27 12:57:55;;;;;;;16.27;10.25;;;6.80;66.30;;;;;;5120419;28;20261;-86
2022/11/27 13:00:28;;;;;;;19.63;10.27;;;6.80;58.90;;;;;;5119906;28;20209;-86
2022/11/27 13:03:02;;;;;;;20.15;10.88;;;6.80;58.00;;;;;;5118923;28;20238;-86
2022/11/27 13:05:38;;;;;;;13.77;9.80;;;6.80;53.40;;;;;;5120902;28;20166;-87
2022/11/27 13:08:12;;;;;;;14.15;9.32;;;7.10;99.90;;;;;;5120286;28;20204;-87
2022/11/27 13:10:43;;;;;;;22.10;9.80;;;6.80;57.60;;;;;;5120983;28;20212;-86
2022/11/27 13:13:16;;;;;;;12.63;9.70;;;6.80;99.90;;;;;;5120106;28;20170;-86
2022/11/27 13:15:46;;;;;;;15.07;11.07;;;6.80;93.80;;;;;;5117339;28;20282;-86
2022/11/27 13:18:23;;;;;;;17.45;9.70;;;6.60;99.90;;;;;;5103399;28;20217;-87
2022/11/27 13:20:52;;;;;;;17.63;10.40;;;6.90;91.70;;;;;;5100969;28;20228;-86
2022/11/27 13:23:20;;;;;;;13.30;10.48;;;6.80;99.90;;;;;;5100089;28;20465;-86
2022/11/27 13:25:54;;;;;;;14.63;9.68;;;7.70;99.90;;;;;;5101244;28;20251;-87
2022/11/27 13:31:45;;;;;;;14.90;9.93;;;7.00;21.70;;;;;;5042631;28;20209;-88
2022/11/27 13:46:55;;;;;;;13.13;9.55;;;7.00;1.00;;;;;;5098916;28;20240;-92
2022/11/27 13:49:37;;;;;;;13.23;9.75;;;7.00;1.00;;;;;;5118347;28;20206;-90
2022/11/27 13:52:21;;;;;;;15.25;10.57;;;7.00;1.20;;;;;;5119352;28;20178;-90
2022/11/27 13:55:41;;;;;;;13.80;10.50;;;7.00;28.60;;;;;;5119612;28;20181;-90
2022/11/27 13:58:15;;;;;;;17.73;11.32;;;;;;;;;;5119301;28;20182;-90
2022/11/27 14:00:43;;;;;;;22.83;10.52;;;7.00;1.00;;;;;;5119689;28;20170;-90
2022/11/27 14:03:23;;;;;;;17.67;9.70;;;7.00;1.00;;;;;;5119685;28;20200;-89
2022/11/27 14:05:50;;;;;;;12.55;10.10;;;;;;;;;;5120132;28;20166;-91
2022/11/27 14:08:20;;;;;;;16.65;10.93;;;7.20;99.90;;;;;;5119810;28;20188;-90
2022/11/27 14:10:59;;;;;;;16.48;11.45;;;7.00;10.60;;;;;;5119623;28;20260;-91
2022/11/27 14:14:01;;;;;;;15.10;11.98;;;7.00;29.00;;;;;;5119389;28;20180;-88
2022/11/27 14:17:13;;;;;;;11.25;10.05;;;6.90;45.30;;;;;;5110258;28;20207;-90
2022/11/27 14:19:45;;;;;;;19.15;10.90;;;6.90;58.10;;;;;;5053741;28;20217;-88
2022/11/27 14:22:15;;;;;;;22.10;12.15;;;;;;;;;;5119236;28;20170;-88
2022/11/27 14:24:44;;;;;;;22.67;11.63;;;;;;;;;;5118350;28;20229;-90
2022/11/27 14:27:23;;;;;;;19.95;12.23;;;6.90;92.00;;;;;;5118659;28;20206;-88
2022/11/27 14:30:33;;;;;;;18.80;12.70;;;6.80;99.90;;;;;;5117732;28;20212;-88
2022/11/27 14:33:06;;;;;;;21.45;9.95;;;;;;;;;;5117069;28;20240;-88
2022/11/27 14:38:28;;;;;;;15.18;10.23;;;;;;;;;;5114903;28;20261;-88
2022/11/27 14:41:29;;;;;;;16.10;10.15;;;6.80;99.50;;;;;;5114205;28;20225;-86
2022/11/27 14:44:07;;;;;;;11.98;8.95;;;6.60;99.90;;;;;;5107517;28;20212;-87
2022/11/27 14:46:41;;;;;;;13.55;8.60;;;;;;;;;;5104514;28;20194;-87
2022/11/27 14:49:22;;;;;;;13.77;9.90;;;6.70;99.90;;;;;;5102919;28;20225;-87
2022/11/27 14:51:52;;;;;;;15.68;9.40;;;;;;;;;;5101013;28;20186;-88
2022/11/27 14:54:38;;;;;;;13.18;10.45;;;6.70;71.30;;;;;;5103233;28;20207;-87
2022/11/27 14:57:14;;;;;;;19.65;10.88;;;6.70;76.90;;;;;;5102348;28;20218;-87
2022/11/27 14:59:46;;;;;;;11.20;9.70;;;;;;;;;;5100584;28;20222;-87
2022/11/27 15:02:19;;;;;;;13.18;10.20;;;6.60;99.90;;;;;;5100289;28;20209;-86
2022/11/27 15:04:47;;;;;;;18.63;12.18;;;6.90;99.90;;;;;;5100327;28;20205;-87
2022/11/27 15:07:16;;;;;;;19.25;11.07;;;6.80;99.90;;;;;;5099383;28;20292;-88
2022/11/27 15:17:10;;;;;;;16.23;12.02;;;6.40;99.90;;;;;;4882833;29;20221;-82
2022/11/27 15:27:06;;;;;;;19.67;11.55;;;6.40;99.90;;;;;;4946589;29;20219;-83
2022/11/27 15:40:28;;;;;;;;;;;;;;;;;;;;;
2022/11/27 15:47:21;;;;;;;;;;;;;;;;;;;;;
2022/11/27 16:10:19;;;;;;;24.00;13.27;;;;;;;;;;4903416;29;20689;-85
2022/11/27 16:13:22;;;;;;;;;;;;;;;;;;;;;
2022/11/27 16:16:12;;;;;;;16.23;12.63;;;5.90;99.90;;;;;;5030892;28;20269;-84
2022/11/27 16:19:04;;;;;;;;;;;;;;;;;;;;;
2022/11/27 16:22:03;;;;;;;17.80;12.38;;;;;;;;;;5100595;28;20294;-85
2022/11/27 16:25:18;;;;;;;;;;;;;;;;;;;;;
2022/11/27 16:27:54;;;;;;;22.33;12.20;;;;;;;;;;5095690;28;20206;-83
2022/11/27 16:30:36;;;;;;;22.65;12.20;;;;;;;;;;5099796;28;20228;-82
2022/11/27 16:33:22;;;;;;;;;;;;;;;;;;;;;
2022/11/27 16:39:05;;;;;;;20.63;14.45;;;;;;;;;;5106174;28;20234;-84
2022/11/27 16:48:59;;;;;;;16.88;12.88;;;5.70;99.90;;;;;;5103379;28;20205;-83
2022/11/27 16:52:04;;;;;;;25.60;14.65;;;5.70;99.90;;;;;;5041219;28;20332;-84
2022/11/27 16:54:57;;;;;;;30.70;15.30;;;;;;;;;;5040091;28;20254;-84